Lugo, Spain
Current Conditions -  °F | °C
As of 1:30 AM on Thursday 18 Dec 2014 (Local Time) from LEST Reporting Station
Moderate Fog Moderate Fog  
Wind Chill: 46°   Ceiling: 2200
Heat Index: 46°   Visibility: 4mi
Dew Point: 46°   Wind: 2mph
Humidity: 100%   Direction: NA
Pressure: 30.45"   Gusts: NA
Location:  43.01°N, 7.56°W
Report Text: LEST 180030Z VRB02KT 6000 2500SE VCFG OVC022 08/08 Q1031 TEMPO 1200 BCFG BKN004
Loading
Personal Weather Stations






























Interactive Weather Map New forecast layout! Learn more

10-Day Weather Forecast

Advertisements
Track Severe Weather on mobile